createdAt,value
2019-01-18T00:01:18.939Z,94.77
2019-01-18T00:03:48.513Z,95.11
2019-01-18T00:06:18.133Z,93.70
2019-01-18T00:08:47.686Z,93.42
2019-01-18T00:11:17.241Z,94.02
2019-01-18T00:13:47.181Z,93.84
2019-01-18T00:16:17.532Z,93.44
2019-01-18T00:18:47.101Z,93.02
2019-01-18T00:21:16.795Z,92.06
2019-01-18T00:23:46.360Z,91.81
2019-01-18T00:26:15.957Z,92.27
2019-01-18T00:28:45.542Z,91.90
2019-01-18T00:31:15.152Z,91.05
2019-01-18T00:33:44.689Z,91.13
2019-01-18T00:36:14.360Z,91.05
2019-01-18T00:38:43.989Z,91.10
2019-01-18T00:41:13.650Z,90.78
2019-01-18T00:43:43.214Z,90.87
2019-01-18T00:46:12.771Z,90.78
2019-01-18T00:48:42.402Z,90.44
2019-01-18T00:51:11.967Z,91.06
2019-01-18T00:53:41.553Z,90.36
2019-01-18T00:56:11.207Z,90.17
2019-01-18T00:58:40.787Z,90.51
2019-01-18T01:01:10.329Z,90.12
2019-01-18T01:03:39.885Z,90.21
2019-01-18T01:06:09.455Z,90.28
2019-01-18T01:08:39.124Z,90.04
2019-01-18T01:11:08.775Z,90.10
2019-01-18T01:13:38.421Z,89.70
2019-01-18T01:16:08.051Z,89.79
2019-01-18T01:18:37.593Z,90.10
2019-01-18T01:21:07.169Z,89.45
2019-01-18T01:23:37.013Z,89.47
2019-01-18T01:26:06.725Z,89.33
2019-01-18T01:28:36.327Z,89.20
2019-01-18T01:31:05.937Z,89.00
2019-01-18T01:33:35.515Z,88.75
2019-01-18T01:36:05.265Z,88.58
2019-01-18T01:38:34.978Z,89.38
2019-01-18T01:41:04.595Z,88.99
2019-01-18T01:43:34.231Z,88.18
2019-01-18T01:46:03.925Z,88.78
2019-01-18T01:48:33.505Z,88.01
2019-01-18T01:51:03.145Z,88.13
2019-01-18T01:53:32.777Z,88.23
2019-01-18T01:56:03.157Z,87.59
2019-01-18T01:58:32.863Z,87.47
2019-01-18T02:01:02.427Z,87.41
2019-01-18T02:03:31.969Z,87.43
2019-01-18T02:06:01.605Z,87.38
2019-01-18T02:08:31.163Z,87.69
2019-01-18T02:11:00.924Z,87.99
2019-01-18T02:13:30.573Z,86.71
2019-01-18T02:16:00.105Z,87.06
2019-01-18T02:18:29.809Z,87.16
2019-01-18T02:20:59.803Z,86.61
2019-01-18T02:23:29.561Z,86.85
2019-01-18T02:25:59.214Z,86.75
2019-01-18T02:28:28.773Z,87.18
2019-01-18T02:30:58.311Z,87.13
2019-01-18T02:33:28.149Z,86.84
2019-01-18T02:35:58.075Z,86.51
2019-01-18T02:38:27.634Z,87.17
2019-01-18T02:40:57.215Z,86.72
2019-01-18T02:43:26.771Z,86.65
2019-01-18T02:45:56.364Z,86.91
2019-01-18T02:48:25.891Z,86.03
2019-01-18T02:50:55.535Z,86.42
2019-01-18T02:53:25.102Z,86.43
2019-01-18T02:55:54.645Z,85.78
2019-01-18T02:58:24.195Z,87.12
2019-01-18T03:00:53.749Z,85.87
2019-01-18T03:03:23.406Z,86.02
2019-01-18T03:05:53.013Z,85.74
2019-01-18T03:08:22.672Z,85.09
2019-01-18T03:10:52.201Z,85.04
2019-01-18T03:13:21.805Z,85.19
2019-01-18T03:15:51.495Z,84.81
2019-01-18T03:18:21.030Z,84.58
2019-01-18T03:20:50.711Z,84.59
2019-01-18T03:23:20.264Z,85.20
2019-01-18T03:25:49.851Z,84.49
2019-01-18T03:28:19.412Z,84.08
2019-01-18T03:30:48.981Z,84.55
2019-01-18T03:33:18.500Z,84.05
2019-01-18T03:35:48.053Z,84.48
2019-01-18T03:38:17.610Z,84.78
2019-01-18T03:40:47.208Z,85.73
2019-01-18T03:43:16.771Z,85.31
2019-01-18T03:45:46.314Z,85.16
2019-01-18T03:48:15.907Z,85.04
2019-01-18T03:50:45.467Z,84.86
2019-01-18T03:53:15.029Z,84.75
2019-01-18T03:55:44.594Z,85.05
2019-01-18T03:58:14.158Z,84.73
2019-01-18T04:00:43.706Z,84.94
2019-01-18T04:03:13.362Z,84.58
2019-01-18T04:05:42.932Z,84.68
2019-01-18T04:08:12.494Z,84.21
2019-01-18T04:10:42.049Z,84.23
2019-01-18T04:13:11.692Z,83.74
2019-01-18T04:15:41.272Z,84.27
2019-01-18T04:18:10.822Z,84.08
2019-01-18T04:20:40.444Z,84.44
2019-01-18T04:23:10.123Z,83.92
2019-01-18T04:25:39.770Z,83.78
2019-01-18T04:28:09.365Z,84.15
2019-01-18T04:30:38.944Z,84.05
2019-01-18T04:33:08.478Z,83.98
2019-01-18T04:35:38.030Z,84.01
2019-01-18T04:38:07.619Z,84.39
2019-01-18T04:40:37.176Z,84.25
2019-01-18T04:43:06.856Z,84.47
2019-01-18T04:45:36.422Z,84.42
2019-01-18T04:48:06.216Z,84.33
2019-01-18T04:50:35.768Z,84.45
2019-01-18T04:53:05.417Z,84.95
2019-01-18T04:55:34.980Z,85.05
2019-01-18T04:58:04.628Z,84.78
2019-01-18T05:00:40.587Z,84.74
2019-01-18T05:03:05.595Z,84.86
2019-01-18T05:05:35.227Z,84.89
2019-01-18T05:08:04.838Z,84.56
2019-01-18T05:10:34.405Z,85.25
2019-01-18T05:13:04.027Z,85.33
2019-01-18T05:15:34.000Z,85.05
2019-01-18T05:18:03.544Z,85.10
2019-01-18T05:20:33.191Z,85.21
2019-01-18T05:23:02.760Z,84.82
2019-01-18T05:25:32.423Z,85.36
2019-01-18T05:28:02.163Z,85.22
2019-01-18T05:30:31.751Z,85.30
2019-01-18T05:33:01.381Z,85.20
2019-01-18T05:35:30.950Z,85.32
2019-01-18T05:38:00.536Z,85.25
2019-01-18T05:40:30.129Z,85.51
2019-01-18T05:42:59.972Z,85.82
2019-01-18T05:45:29.657Z,85.84
2019-01-18T05:47:59.219Z,85.74
2019-01-18T05:50:29.970Z,86.12
2019-01-18T05:53:03.409Z,85.88
2019-01-18T05:55:32.959Z,85.66
2019-01-18T05:58:02.649Z,86.18
2019-01-18T06:00:55.124Z,86.09
2019-01-18T06:03:20.284Z,85.85
2019-01-18T06:05:49.943Z,85.99
2019-01-18T06:08:19.574Z,85.97
2019-01-18T06:10:49.130Z,85.54
2019-01-18T06:13:18.795Z,85.80
2019-01-18T06:15:48.421Z,85.87
2019-01-18T06:18:18.053Z,85.92
2019-01-18T06:20:47.625Z,85.59
2019-01-18T06:23:17.257Z,85.57
2019-01-18T06:25:46.910Z,85.43
2019-01-18T06:28:16.467Z,85.58
2019-01-18T06:30:46.016Z,85.79
2019-01-18T06:33:15.596Z,85.90
2019-01-18T06:35:45.168Z,85.07
2019-01-18T06:38:14.717Z,85.58
2019-01-18T06:40:45.452Z,85.67
2019-01-18T06:43:15.087Z,85.68
2019-01-18T06:45:44.667Z,86.02
2019-01-18T06:48:18.358Z,85.93
2019-01-18T06:50:47.977Z,86.06
2019-01-18T06:53:17.501Z,86.17
2019-01-18T06:55:47.052Z,86.11
2019-01-18T06:58:16.609Z,85.88
2019-01-18T07:00:46.191Z,86.36
2019-01-18T07:03:15.817Z,85.75
2019-01-18T07:05:45.381Z,85.82
2019-01-18T07:08:14.924Z,85.76
2019-01-18T07:10:44.493Z,85.86
2019-01-18T07:13:14.090Z,85.63
2019-01-18T07:15:43.725Z,85.50
2019-01-18T07:18:13.281Z,85.58
2019-01-18T07:20:42.852Z,85.69
2019-01-18T07:23:12.436Z,85.67
2019-01-18T07:25:42.046Z,85.62
2019-01-18T07:28:11.778Z,86.02
2019-01-18T07:30:42.757Z,85.84
2019-01-18T07:33:14.017Z,86.35
2019-01-18T07:35:43.664Z,86.28
2019-01-18T07:38:13.320Z,86.42
2019-01-18T07:40:42.962Z,86.24
2019-01-18T07:43:12.808Z,85.93
2019-01-18T07:45:42.443Z,86.08
2019-01-18T07:48:11.997Z,85.94
2019-01-18T07:50:41.550Z,86.18
2019-01-18T07:53:11.187Z,86.02
2019-01-18T07:55:40.836Z,86.01
2019-01-18T07:58:10.401Z,85.66
2019-01-18T08:00:39.984Z,86.31
2019-01-18T08:03:09.639Z,85.96
2019-01-18T08:05:39.389Z,85.82
2019-01-18T08:08:09.201Z,86.07
2019-01-18T08:10:38.760Z,86.08
2019-01-18T08:13:08.421Z,86.08
2019-01-18T08:15:38.049Z,86.17
2019-01-18T08:18:07.659Z,86.21
2019-01-18T08:20:37.289Z,85.68
2019-01-18T08:23:07.019Z,85.72
2019-01-18T08:25:36.607Z,85.94
2019-01-18T08:28:06.532Z,86.26
2019-01-18T08:30:36.191Z,86.33
2019-01-18T08:33:05.752Z,86.47
2019-01-18T08:35:35.339Z,86.70
2019-01-18T08:38:05.119Z,86.60
2019-01-18T08:40:38.093Z,86.91
2019-01-18T08:43:09.768Z,86.90
2019-01-18T08:45:42.281Z,86.98
2019-01-18T08:48:11.944Z,87.53
2019-01-18T08:50:41.885Z,87.85
2019-01-18T08:53:11.467Z,87.60
2019-01-18T08:55:41.116Z,87.57
2019-01-18T08:58:10.685Z,87.34
2019-01-18T09:00:40.281Z,87.26
2019-01-18T09:03:09.940Z,86.86
2019-01-18T09:05:48.181Z,86.70
2019-01-18T09:08:17.891Z,87.11
2019-01-18T09:10:47.517Z,86.91
2019-01-18T09:13:18.428Z,86.59
2019-01-18T09:15:48.138Z,86.47
2019-01-18T09:18:17.791Z,86.96
2019-01-18T09:20:47.347Z,86.84
2019-01-18T09:23:16.988Z,86.89
2019-01-18T09:25:46.571Z,87.43
2019-01-18T09:28:16.197Z,88.23
2019-01-18T09:30:45.767Z,88.17
2019-01-18T09:33:15.538Z,88.81
2019-01-18T09:35:50.868Z,88.48
2019-01-18T09:38:20.467Z,88.67
2019-01-18T09:40:50.105Z,88.79
2019-01-18T09:43:19.697Z,89.22
2019-01-18T09:45:49.351Z,89.65
2019-01-18T09:48:22.271Z,89.44
2019-01-18T09:50:51.958Z,89.43
2019-01-18T09:53:21.627Z,89.93
2019-01-18T09:55:51.195Z,89.77
2019-01-18T09:58:20.777Z,90.38
2019-01-18T10:00:50.410Z,90.02
2019-01-18T10:03:19.970Z,90.07
2019-01-18T10:05:49.545Z,90.34
2019-01-18T10:08:19.100Z,90.62
2019-01-18T10:10:48.677Z,90.37
2019-01-18T10:13:18.292Z,90.59
2019-01-18T10:15:48.288Z,90.63
2019-01-18T10:18:17.913Z,90.45
2019-01-18T10:20:47.554Z,90.36
2019-01-18T10:23:17.206Z,90.81
2019-01-18T10:25:46.806Z,90.61
2019-01-18T10:28:16.392Z,90.30
2019-01-18T10:30:45.946Z,90.44
2019-01-18T10:33:15.527Z,90.71
2019-01-18T10:35:45.158Z,90.56
2019-01-18T10:38:14.717Z,90.96
2019-01-18T10:40:44.292Z,90.90
2019-01-18T10:43:13.879Z,90.73
2019-01-18T10:45:43.787Z,90.84
2019-01-18T10:48:13.369Z,90.90
2019-01-18T10:50:42.988Z,90.97
2019-01-18T10:53:12.555Z,90.91
2019-01-18T10:55:42.132Z,90.93
2019-01-18T10:58:11.740Z,90.87
2019-01-18T11:00:41.560Z,90.93
2019-01-18T11:03:11.421Z,90.90
2019-01-18T11:05:41.038Z,90.90
2019-01-18T11:08:10.612Z,90.85
2019-01-18T11:10:40.279Z,91.04
2019-01-18T11:13:09.852Z,90.78
2019-01-18T11:15:39.490Z,90.42
2019-01-18T11:18:09.116Z,91.09
2019-01-18T11:20:45.980Z,90.88
2019-01-18T11:23:15.610Z,91.04
2019-01-18T11:25:45.362Z,91.08
2019-01-18T11:28:14.923Z,91.13
2019-01-18T11:30:44.554Z,91.33
2019-01-18T11:33:14.250Z,91.35
2019-01-18T11:35:43.850Z,91.28
2019-01-18T11:38:13.726Z,91.45
2019-01-18T11:40:43.392Z,91.44
2019-01-18T11:43:13.086Z,91.61
2019-01-18T11:45:42.655Z,91.75
2019-01-18T11:48:12.344Z,91.86
2019-01-18T11:50:41.930Z,92.20
2019-01-18T11:53:11.589Z,92.21
2019-01-18T11:55:41.180Z,92.27
2019-01-18T11:58:10.778Z,92.23
2019-01-18T12:00:40.464Z,92.35
2019-01-18T12:03:10.314Z,92.24
2019-01-18T12:05:43.050Z,92.20
2019-01-18T12:08:12.807Z,92.30
2019-01-18T12:10:42.442Z,92.37
2019-01-18T12:13:21.943Z,92.22
2019-01-18T12:15:51.635Z,92.32
2019-01-18T12:18:21.247Z,92.54
2019-01-18T12:20:50.991Z,92.68
2019-01-18T12:23:20.906Z,92.29
2019-01-18T12:25:50.527Z,92.78
2019-01-18T12:28:20.298Z,92.70
2019-01-18T12:30:49.895Z,93.01
2019-01-18T12:33:19.638Z,92.85
2019-01-18T12:35:49.227Z,92.92
2019-01-18T12:38:18.917Z,93.04
2019-01-18T12:40:48.798Z,92.41
2019-01-18T12:43:18.677Z,92.67
2019-01-18T12:45:48.249Z,92.44
2019-01-18T12:48:17.845Z,92.50
2019-01-18T12:50:47.539Z,91.84
2019-01-18T12:53:17.126Z,91.79
2019-01-18T12:55:46.859Z,91.63
2019-01-18T12:58:16.528Z,91.33
2019-01-18T13:00:46.197Z,91.45
2019-01-18T13:03:15.755Z,91.25
2019-01-18T13:05:50.274Z,91.37
2019-01-18T13:08:19.860Z,91.26
2019-01-18T13:10:49.628Z,91.25
2019-01-18T13:13:19.329Z,91.05
2019-01-18T13:16:22.648Z,91.14
2019-01-18T13:18:54.748Z,91.11
2019-01-18T13:21:24.458Z,91.27
2019-01-18T13:23:54.087Z,91.30
2019-01-18T13:26:23.875Z,91.35
2019-01-18T13:28:53.645Z,91.42
2019-01-18T13:31:23.695Z,91.46
2019-01-18T13:33:53.802Z,91.67
2019-01-18T13:36:23.409Z,91.47
2019-01-18T13:38:53.195Z,91.54
2019-01-18T13:41:22.945Z,91.25
2019-01-18T13:43:52.695Z,91.47
2019-01-18T13:46:22.566Z,91.65
2019-01-18T13:48:52.354Z,91.53
2019-01-18T13:51:22.039Z,91.42
2019-01-18T13:53:51.670Z,91.35
2019-01-18T13:56:21.343Z,91.14
2019-01-18T13:58:51.103Z,91.03
2019-01-18T14:01:20.699Z,91.07
2019-01-18T14:03:50.315Z,91.07
2019-01-18T14:06:19.917Z,91.35
2019-01-18T14:08:49.545Z,91.17
2019-01-18T14:11:19.409Z,91.28
2019-01-18T14:13:49.056Z,91.25
2019-01-18T14:16:18.769Z,91.29
2019-01-18T14:18:48.371Z,91.54
2019-01-18T14:21:18.042Z,91.53
2019-01-18T14:23:47.770Z,91.44
2019-01-18T14:26:17.446Z,91.39
2019-01-18T14:28:47.025Z,91.78
2019-01-18T14:31:16.655Z,91.74
2019-01-18T14:33:46.352Z,91.91
2019-01-18T14:36:16.040Z,91.79
2019-01-18T14:38:45.725Z,91.98
2019-01-18T14:41:15.856Z,92.23
2019-01-18T14:43:45.507Z,92.18
2019-01-18T14:46:15.222Z,92.14
2019-01-18T14:48:44.943Z,91.77
2019-01-18T14:51:14.695Z,91.49
2019-01-18T14:53:44.371Z,91.49
2019-01-18T14:56:14.073Z,91.38
2019-01-18T14:58:43.682Z,91.71
2019-01-18T15:01:13.376Z,92.21
2019-01-18T15:03:43.173Z,92.30
2019-01-18T15:06:12.952Z,92.00
2019-01-18T15:08:42.778Z,92.42
2019-01-18T15:11:12.475Z,92.31
2019-01-18T15:13:42.174Z,91.96
2019-01-18T15:16:11.857Z,91.69
2019-01-18T15:18:41.453Z,91.82
2019-01-18T15:21:11.858Z,91.91
2019-01-18T15:23:41.551Z,91.93
2019-01-18T15:26:11.166Z,91.97
2019-01-18T15:28:41.059Z,91.55
2019-01-18T15:31:10.714Z,91.48
2019-01-18T15:33:40.687Z,91.59
2019-01-18T15:36:10.492Z,91.42
2019-01-18T15:38:40.148Z,91.55
2019-01-18T15:41:09.865Z,91.70
2019-01-18T15:43:39.483Z,91.71
2019-01-18T15:46:09.350Z,91.98
2019-01-18T15:48:39.041Z,91.91
2019-01-18T15:51:08.812Z,91.79
2019-01-18T15:53:39.132Z,91.94
2019-01-18T15:56:08.893Z,91.96
2019-01-18T15:58:39.494Z,91.96
2019-01-18T16:01:09.702Z,91.87
2019-01-18T16:03:44.284Z,92.04
2019-01-18T16:06:13.980Z,91.96
2019-01-18T16:08:43.971Z,92.13
2019-01-18T16:11:39.706Z,92.53
2019-01-18T16:14:09.316Z,92.25
2019-01-18T16:16:51.877Z,92.07
2019-01-18T16:19:21.714Z,92.37
2019-01-18T16:21:51.749Z,92.14
2019-01-18T16:24:21.695Z,91.79
2019-01-18T16:26:52.217Z,91.60
2019-01-18T16:29:22.203Z,91.80
2019-01-18T16:31:51.948Z,92.10
2019-01-18T16:34:21.790Z,91.90
2019-01-18T16:36:51.705Z,92.03
2019-01-18T16:39:21.495Z,92.02
2019-01-18T16:41:51.214Z,91.67
2019-01-18T16:44:21.064Z,92.17
2019-01-18T16:46:50.744Z,92.25
2019-01-18T16:49:20.377Z,92.19
2019-01-18T16:51:50.098Z,92.35
2019-01-18T16:54:19.754Z,91.91
2019-01-18T16:56:49.485Z,91.96
2019-01-18T16:59:19.167Z,92.64
2019-01-18T17:01:48.884Z,92.59
2019-01-18T17:04:18.572Z,92.60
2019-01-18T17:06:48.284Z,92.56
2019-01-18T17:09:17.928Z,92.42
2019-01-18T17:11:47.746Z,92.28
2019-01-18T17:14:17.394Z,91.65
2019-01-18T17:16:47.239Z,91.99
2019-01-18T17:19:16.854Z,91.88
2019-01-18T17:21:46.528Z,91.42
2019-01-18T17:24:16.102Z,91.05
2019-01-18T17:26:45.938Z,91.03
2019-01-18T17:29:15.536Z,90.75
2019-01-18T17:31:45.208Z,90.95
2019-01-18T17:34:14.884Z,90.71
2019-01-18T17:37:09.754Z,90.67
2019-01-18T17:40:28.785Z,90.69
2019-01-18T17:43:38.501Z,90.73
2019-01-18T17:46:54.261Z,90.89
2019-01-18T17:50:01.451Z,90.59
2019-01-18T17:53:24.535Z,90.92
2019-01-18T17:56:41.312Z,91.06
2019-01-18T17:59:32.962Z,90.66
2019-01-18T18:02:43.729Z,90.53
2019-01-18T18:06:10.686Z,90.58
2019-01-18T18:09:08.126Z,91.08
2019-01-18T18:12:09.661Z,91.40
2019-01-18T18:15:12.312Z,91.17
2019-01-18T18:17:53.412Z,91.25
2019-01-18T18:21:06.249Z,90.91
2019-01-18T18:24:06.554Z,90.62
2019-01-18T18:27:00.543Z,91.00
2019-01-18T18:30:09.737Z,90.86
2019-01-18T18:33:32.160Z,91.08
2019-01-18T18:36:25.664Z,91.06
2019-01-18T18:39:29.595Z,91.16
2019-01-18T18:42:28.689Z,91.11
2019-01-18T18:45:42.625Z,90.91
2019-01-18T18:48:27.049Z,91.04
2019-01-18T18:51:53.351Z,90.78
2019-01-18T18:55:00.039Z,91.02
2019-01-18T18:58:19.148Z,90.94
2019-01-18T19:01:26.906Z,92.11
2019-01-18T19:04:29.409Z,92.30
2019-01-18T19:07:30.258Z,92.67
2019-01-18T19:10:53.042Z,92.74
2019-01-18T19:14:10.141Z,92.63
2019-01-18T19:17:07.986Z,91.83
2019-01-18T19:20:04.383Z,91.70
2019-01-18T19:22:59.840Z,91.70
2019-01-18T19:26:00.880Z,91.67
2019-01-18T19:28:56.633Z,91.28
2019-01-18T19:31:48.004Z,91.55
2019-01-18T19:34:42.483Z,91.50
2019-01-18T19:37:25.039Z,91.52
2019-01-18T19:40:41.682Z,91.86
2019-01-18T19:43:48.632Z,92.26
2019-01-18T19:46:44.716Z,92.40
2019-01-18T19:49:30.068Z,92.11
2019-01-18T19:52:29.708Z,91.68
2019-01-18T19:55:58.931Z,91.62
2019-01-18T19:58:38.919Z,91.17
2019-01-18T20:01:43.609Z,91.43
2019-01-18T20:04:43.547Z,91.40
2019-01-18T20:07:28.901Z,91.13
2019-01-18T20:10:19.966Z,91.15
2019-01-18T20:13:13.127Z,90.88
2019-01-18T20:16:17.093Z,90.73
2019-01-18T20:19:13.858Z,90.79
2019-01-18T20:22:10.360Z,90.99
2019-01-18T20:25:01.023Z,90.46
2019-01-18T20:27:54.240Z,90.62
2019-01-18T20:30:50.486Z,91.00
2019-01-18T20:34:01.583Z,91.24
2019-01-18T20:37:04.250Z,91.02
2019-01-18T20:40:13.868Z,90.54
2019-01-18T20:43:27.817Z,90.92
2019-01-18T20:46:23.988Z,90.30
2019-01-18T20:49:20.225Z,90.50
2019-01-18T20:52:22.537Z,90.18
2019-01-18T20:55:32.864Z,90.32
2019-01-18T20:59:01.745Z,90.25
2019-01-18T21:02:08.537Z,90.53
2019-01-18T21:05:02.248Z,90.55
2019-01-18T21:08:13.412Z,90.66
2019-01-18T21:11:17.293Z,90.34
2019-01-18T21:14:22.527Z,90.45
2019-01-18T21:17:15.211Z,90.30
2019-01-18T21:20:41.457Z,90.44
2019-01-18T21:23:21.197Z,90.11
2019-01-18T21:26:02.867Z,90.31
2019-01-18T21:29:09.763Z,90.17
2019-01-18T21:32:18.396Z,90.62
2019-01-18T21:35:02.540Z,89.96
2019-01-18T21:38:03.726Z,90.31
2019-01-18T21:41:26.791Z,89.97
2019-01-18T21:44:36.268Z,89.73
2019-01-18T21:48:05.941Z,89.90
2019-01-18T21:51:12.577Z,89.89
2019-01-18T21:53:51.061Z,89.92
2019-01-18T21:57:17.128Z,89.95
2019-01-18T22:00:19.192Z,89.94
2019-01-18T22:03:21.179Z,90.12
2019-01-18T22:06:22.847Z,89.79
2019-01-18T22:09:29.390Z,89.97
2019-01-18T22:12:27.600Z,90.10
2019-01-18T22:15:33.211Z,90.28
2019-01-18T22:18:21.921Z,89.98
2019-01-18T22:21:40.940Z,90.28
2019-01-18T22:24:31.747Z,90.20
2019-01-18T22:27:15.717Z,90.20
2019-01-18T22:30:30.908Z,90.20
2019-01-18T22:33:30.881Z,90.75
2019-01-18T22:36:34.753Z,90.79
2019-01-18T22:40:00.208Z,90.64
2019-01-18T22:43:04.843Z,90.66
2019-01-18T22:46:11.605Z,90.66
2019-01-18T22:49:13.115Z,91.15
2019-01-18T22:52:01.560Z,90.81
2019-01-18T22:54:59.705Z,90.88
2019-01-18T22:57:46.846Z,90.85
2019-01-18T23:01:04.964Z,90.71
2019-01-18T23:04:15.751Z,90.53
2019-01-18T23:07:25.676Z,90.82
2019-01-18T23:10:31.484Z,90.99
2019-01-18T23:13:38.379Z,90.93
2019-01-18T23:17:07.344Z,90.89
2019-01-18T23:20:05.944Z,90.80
2019-01-18T23:23:14.829Z,90.46
2019-01-18T23:26:32.556Z,90.36
2019-01-18T23:29:36.759Z,90.05
2019-01-18T23:32:54.145Z,89.84
2019-01-18T23:36:12.526Z,89.88
2019-01-18T23:39:12.884Z,89.89
2019-01-18T23:42:15.398Z,90.18
2019-01-18T23:45:14.859Z,89.88
2019-01-18T23:47:59.352Z,89.77
2019-01-18T23:50:49.410Z,90.12
2019-01-18T23:53:33.351Z,89.59
2019-01-18T23:56:52.528Z,89.65
2019-01-18T23:59:58.810Z,89.61
